sensor_id;sensor_type;location;lat;lon;timestamp;P1;durP1;ratioP1;P2;durP2;ratioP2
9102;SDS011;4587;51.434;6.788;2024-03-08T00:01:05;22.03;;;17.07;;
9102;SDS011;4587;51.434;6.788;2024-03-08T00:03:31;20.00;;;16.50;;
9102;SDS011;4587;51.434;6.788;2024-03-08T00:05:57;20.63;;;15.97;;
9102;SDS011;4587;51.434;6.788;2024-03-08T00:08:23;22.43;;;16.80;;
9102;SDS011;4587;51.434;6.788;2024-03-08T00:10:48;19.33;;;16.07;;
9102;SDS011;4587;51.434;6.788;2024-03-08T00:13:14;20.87;;;16.03;;
9102;SDS011;4587;51.434;6.788;2024-03-08T00:15:40;20.67;;;16.73;;
9102;SDS011;4587;51.434;6.788;2024-03-08T00:18:06;20.90;;;17.33;;
9102;SDS011;4587;51.434;6.788;2024-03-08T00:20:32;21.60;;;17.17;;
9102;SDS011;4587;51.434;6.788;2024-03-08T00:22:58;18.83;;;16.37;;
9102;SDS011;4587;51.434;6.788;2024-03-08T00:25:24;21.93;;;16.97;;
9102;SDS011;4587;51.434;6.788;2024-03-08T00:27:49;21.13;;;16.80;;
9102;SDS011;4587;51.434;6.788;2024-03-08T00:30:15;22.00;;;17.27;;
9102;SDS011;4587;51.434;6.788;2024-03-08T00:32:40;18.77;;;15.97;;
9102;SDS011;4587;51.434;6.788;2024-03-08T00:35:06;20.77;;;17.53;;
9102;SDS011;4587;51.434;6.788;2024-03-08T00:37:32;20.40;;;16.90;;
9102;SDS011;4587;51.434;6.788;2024-03-08T00:39:59;22.10;;;17.57;;
9102;SDS011;4587;51.434;6.788;2024-03-08T00:42:25;20.17;;;16.87;;
9102;SDS011;4587;51.434;6.788;2024-03-08T00:44:50;20.10;;;16.80;;
9102;SDS011;4587;51.434;6.788;2024-03-08T00:47:16;20.43;;;17.23;;
9102;SDS011;4587;51.434;6.788;2024-03-08T00:49:42;20.80;;;17.00;;
9102;SDS011;4587;51.434;6.788;2024-03-08T00:52:07;22.10;;;17.23;;
9102;SDS011;4587;51.434;6.788;2024-03-08T00:54:33;22.43;;;17.57;;
9102;SDS011;4587;51.434;6.788;2024-03-08T00:57:01;21.77;;;17.97;;
9102;SDS011;4587;51.434;6.788;2024-03-08T00:59:27;20.60;;;17.03;;
9102;SDS011;4587;51.434;6.788;2024-03-08T01:01:53;20.83;;;17.17;;
9102;SDS011;4587;51.434;6.788;2024-03-08T01:04:19;19.93;;;16.77;;
9102;SDS011;4587;51.434;6.788;2024-03-08T01:06:46;21.77;;;17.93;;
9102;SDS011;4587;51.434;6.788;2024-03-08T01:09:12;23.80;;;17.77;;
9102;SDS011;4587;51.434;6.788;2024-03-08T01:11:38;22.60;;;17.83;;
9102;SDS011;4587;51.434;6.788;2024-03-08T01:14:03;25.70;;;18.33;;
9102;SDS011;4587;51.434;6.788;2024-03-08T01:16:29;21.90;;;17.80;;
9102;SDS011;4587;51.434;6.788;2024-03-08T01:18:54;22.47;;;17.70;;
9102;SDS011;4587;51.434;6.788;2024-03-08T01:21:20;21.27;;;18.60;;
9102;SDS011;4587;51.434;6.788;2024-03-08T01:23:45;22.70;;;18.43;;
9102;SDS011;4587;51.434;6.788;2024-03-08T01:26:11;23.23;;;17.93;;
9102;SDS011;4587;51.434;6.788;2024-03-08T01:28:37;22.70;;;18.27;;
9102;SDS011;4587;51.434;6.788;2024-03-08T01:31:02;20.60;;;18.27;;
9102;SDS011;4587;51.434;6.788;2024-03-08T01:33:29;21.47;;;18.53;;
9102;SDS011;4587;51.434;6.788;2024-03-08T01:35:55;21.27;;;17.80;;
9102;SDS011;4587;51.434;6.788;2024-03-08T01:38:22;21.57;;;17.93;;
9102;SDS011;4587;51.434;6.788;2024-03-08T01:40:47;21.13;;;18.23;;
9102;SDS011;4587;51.434;6.788;2024-03-08T01:43:20;22.20;;;19.10;;
9102;SDS011;4587;51.434;6.788;2024-03-08T01:45:57;26.90;;;18.20;;
9102;SDS011;4587;51.434;6.788;2024-03-08T01:48:29;21.83;;;19.20;;
9102;SDS011;4587;51.434;6.788;2024-03-08T01:50:56;23.43;;;18.47;;
9102;SDS011;4587;51.434;6.788;2024-03-08T01:53:23;25.60;;;19.33;;
9102;SDS011;4587;51.434;6.788;2024-03-08T01:55:50;24.23;;;18.97;;
9102;SDS011;4587;51.434;6.788;2024-03-08T01:58:18;25.20;;;19.17;;
9102;SDS011;4587;51.434;6.788;2024-03-08T02:00:47;25.63;;;18.57;;
9102;SDS011;4587;51.434;6.788;2024-03-08T02:03:14;24.83;;;18.83;;
9102;SDS011;4587;51.434;6.788;2024-03-08T02:05:40;22.23;;;18.73;;
9102;SDS011;4587;51.434;6.788;2024-03-08T02:08:06;23.03;;;19.30;;
9102;SDS011;4587;51.434;6.788;2024-03-08T02:10:33;21.70;;;18.80;;
9102;SDS011;4587;51.434;6.788;2024-03-08T02:12:59;24.17;;;19.77;;
9102;SDS011;4587;51.434;6.788;2024-03-08T02:15:27;25.47;;;20.27;;
9102;SDS011;4587;51.434;6.788;2024-03-08T02:18:24;25.83;;;19.33;;
9102;SDS011;4587;51.434;6.788;2024-03-08T02:20:51;26.00;;;19.73;;
9102;SDS011;4587;51.434;6.788;2024-03-08T02:23:27;21.90;;;18.40;;
9102;SDS011;4587;51.434;6.788;2024-03-08T02:25:54;25.30;;;20.17;;
9102;SDS011;4587;51.434;6.788;2024-03-08T02:28:20;23.43;;;19.47;;
9102;SDS011;4587;51.434;6.788;2024-03-08T02:30:49;24.07;;;19.17;;
9102;SDS011;4587;51.434;6.788;2024-03-08T02:33:21;22.97;;;19.67;;
9102;SDS011;4587;51.434;6.788;2024-03-08T02:35:48;23.30;;;19.47;;
9102;SDS011;4587;51.434;6.788;2024-03-08T02:38:14;23.37;;;19.50;;
9102;SDS011;4587;51.434;6.788;2024-03-08T02:40:42;26.20;;;20.40;;
9102;SDS011;4587;51.434;6.788;2024-03-08T02:43:08;24.70;;;19.53;;
9102;SDS011;4587;51.434;6.788;2024-03-08T02:45:34;24.70;;;20.33;;
9102;SDS011;4587;51.434;6.788;2024-03-08T02:48:00;23.83;;;19.00;;
9102;SDS011;4587;51.434;6.788;2024-03-08T02:50:25;26.03;;;20.33;;
9102;SDS011;4587;51.434;6.788;2024-03-08T02:52:51;26.63;;;20.60;;
9102;SDS011;4587;51.434;6.788;2024-03-08T02:55:16;24.10;;;20.53;;
9102;SDS011;4587;51.434;6.788;2024-03-08T02:57:42;25.53;;;21.43;;
9102;SDS011;4587;51.434;6.788;2024-03-08T03:00:12;25.67;;;21.03;;
9102;SDS011;4587;51.434;6.788;2024-03-08T03:02:38;24.93;;;20.90;;
9102;SDS011;4587;51.434;6.788;2024-03-08T03:05:04;25.97;;;21.27;;
9102;SDS011;4587;51.434;6.788;2024-03-08T03:07:33;24.80;;;20.73;;
9102;SDS011;4587;51.434;6.788;2024-03-08T03:09:59;23.60;;;20.20;;
9102;SDS011;4587;51.434;6.788;2024-03-08T03:12:26;28.17;;;21.53;;
9102;SDS011;4587;51.434;6.788;2024-03-08T03:14:55;28.83;;;22.07;;
9102;SDS011;4587;51.434;6.788;2024-03-08T03:17:21;24.57;;;20.60;;
9102;SDS011;4587;51.434;6.788;2024-03-08T03:19:47;26.60;;;21.57;;
9102;SDS011;4587;51.434;6.788;2024-03-08T03:22:13;27.30;;;22.10;;
9102;SDS011;4587;51.434;6.788;2024-03-08T03:24:40;30.77;;;21.50;;
9102;SDS011;4587;51.434;6.788;2024-03-08T03:27:07;27.10;;;22.27;;
9102;SDS011;4587;51.434;6.788;2024-03-08T03:29:42;27.13;;;22.80;;
9102;SDS011;4587;51.434;6.788;2024-03-08T03:32:13;25.93;;;21.80;;
9102;SDS011;4587;51.434;6.788;2024-03-08T03:34:40;26.00;;;21.77;;
9102;SDS011;4587;51.434;6.788;2024-03-08T03:37:07;26.33;;;20.80;;
9102;SDS011;4587;51.434;6.788;2024-03-08T03:39:43;26.33;;;22.00;;
9102;SDS011;4587;51.434;6.788;2024-03-08T03:42:16;26.57;;;23.03;;
9102;SDS011;4587;51.434;6.788;2024-03-08T03:44:46;25.97;;;22.37;;
9102;SDS011;4587;51.434;6.788;2024-03-08T03:47:12;26.97;;;21.77;;
9102;SDS011;4587;51.434;6.788;2024-03-08T03:49:39;28.53;;;22.60;;
9102;SDS011;4587;51.434;6.788;2024-03-08T03:52:05;28.23;;;22.30;;
9102;SDS011;4587;51.434;6.788;2024-03-08T03:54:31;28.63;;;21.83;;
9102;SDS011;4587;51.434;6.788;2024-03-08T03:56:57;27.67;;;21.63;;
9102;SDS011;4587;51.434;6.788;2024-03-08T03:59:23;28.03;;;22.40;;
9102;SDS011;4587;51.434;6.788;2024-03-08T04:01:49;30.77;;;22.40;;
9102;SDS011;4587;51.434;6.788;2024-03-08T04:04:15;26.17;;;22.73;;
9102;SDS011;4587;51.434;6.788;2024-03-08T04:06:40;27.40;;;22.50;;
9102;SDS011;4587;51.434;6.788;2024-03-08T04:09:06;28.63;;;22.83;;
9102;SDS011;4587;51.434;6.788;2024-03-08T04:11:32;29.43;;;23.10;;
9102;SDS011;4587;51.434;6.788;2024-03-08T04:13:58;27.73;;;22.00;;
9102;SDS011;4587;51.434;6.788;2024-03-08T04:16:24;27.47;;;22.33;;
9102;SDS011;4587;51.434;6.788;2024-03-08T04:18:50;27.87;;;23.13;;
9102;SDS011;4587;51.434;6.788;2024-03-08T04:21:16;28.63;;;23.90;;
9102;SDS011;4587;51.434;6.788;2024-03-08T04:23:44;26.67;;;22.33;;
9102;SDS011;4587;51.434;6.788;2024-03-08T04:26:10;29.63;;;23.00;;
9102;SDS011;4587;51.434;6.788;2024-03-08T04:28:35;30.40;;;22.80;;
9102;SDS011;4587;51.434;6.788;2024-03-08T04:31:02;26.67;;;22.90;;
9102;SDS011;4587;51.434;6.788;2024-03-08T04:33:31;26.80;;;23.20;;
9102;SDS011;4587;51.434;6.788;2024-03-08T04:35:57;29.10;;;24.37;;
9102;SDS011;4587;51.434;6.788;2024-03-08T04:38:23;26.83;;;21.77;;
9102;SDS011;4587;51.434;6.788;2024-03-08T04:40:49;30.10;;;22.90;;
9102;SDS011;4587;51.434;6.788;2024-03-08T04:43:15;29.37;;;23.30;;
9102;SDS011;4587;51.434;6.788;2024-03-08T04:45:43;25.47;;;21.90;;
9102;SDS011;4587;51.434;6.788;2024-03-08T04:48:09;29.03;;;22.73;;
9102;SDS011;4587;51.434;6.788;2024-03-08T04:50:34;27.27;;;22.53;;
9102;SDS011;4587;51.434;6.788;2024-03-08T04:53:00;30.73;;;23.90;;
9102;SDS011;4587;51.434;6.788;2024-03-08T04:55:26;31.87;;;23.83;;
9102;SDS011;4587;51.434;6.788;2024-03-08T04:57:51;28.80;;;23.93;;
9102;SDS011;4587;51.434;6.788;2024-03-08T05:00:18;27.10;;;23.47;;
9102;SDS011;4587;51.434;6.788;2024-03-08T05:02:44;26.17;;;22.97;;
9102;SDS011;4587;51.434;6.788;2024-03-08T05:05:09;27.87;;;23.17;;
9102;SDS011;4587;51.434;6.788;2024-03-08T05:07:37;34.07;;;24.73;;
9102;SDS011;4587;51.434;6.788;2024-03-08T05:10:04;31.47;;;25.07;;
9102;SDS011;4587;51.434;6.788;2024-03-08T05:12:31;29.73;;;23.60;;
9102;SDS011;4587;51.434;6.788;2024-03-08T05:14:57;29.50;;;23.80;;
9102;SDS011;4587;51.434;6.788;2024-03-08T05:17:23;29.87;;;23.77;;
9102;SDS011;4587;51.434;6.788;2024-03-08T05:19:49;31.03;;;24.43;;
9102;SDS011;4587;51.434;6.788;2024-03-08T05:22:15;31.97;;;24.87;;
9102;SDS011;4587;51.434;6.788;2024-03-08T05:24:42;32.20;;;24.30;;
9102;SDS011;4587;51.434;6.788;2024-03-08T05:27:07;28.17;;;23.60;;
9102;SDS011;4587;51.434;6.788;2024-03-08T05:29:33;31.97;;;24.23;;
9102;SDS011;4587;51.434;6.788;2024-03-08T05:31:58;31.17;;;25.13;;
9102;SDS011;4587;51.434;6.788;2024-03-08T05:34:24;32.50;;;24.70;;
9102;SDS011;4587;51.434;6.788;2024-03-08T05:36:51;29.40;;;24.00;;
9102;SDS011;4587;51.434;6.788;2024-03-08T05:39:17;31.97;;;24.97;;
9102;SDS011;4587;51.434;6.788;2024-03-08T05:41:43;29.87;;;24.30;;
9102;SDS011;4587;51.434;6.788;2024-03-08T05:44:10;31.73;;;24.47;;
9102;SDS011;4587;51.434;6.788;2024-03-08T05:46:36;28.43;;;23.70;;
9102;SDS011;4587;51.434;6.788;2024-03-08T05:49:06;30.80;;;24.30;;
9102;SDS011;4587;51.434;6.788;2024-03-08T05:51:36;31.67;;;24.57;;
9102;SDS011;4587;51.434;6.788;2024-03-08T05:54:06;30.77;;;23.93;;
9102;SDS011;4587;51.434;6.788;2024-03-08T05:56:34;30.97;;;23.70;;
9102;SDS011;4587;51.434;6.788;2024-03-08T05:59:00;31.50;;;23.97;;
9102;SDS011;4587;51.434;6.788;2024-03-08T06:01:27;30.57;;;25.00;;
9102;SDS011;4587;51.434;6.788;2024-03-08T06:03:53;31.90;;;25.40;;
9102;SDS011;4587;51.434;6.788;2024-03-08T06:06:21;30.27;;;23.83;;
9102;SDS011;4587;51.434;6.788;2024-03-08T06:08:47;34.80;;;25.00;;
9102;SDS011;4587;51.434;6.788;2024-03-08T06:11:14;31.90;;;25.60;;
9102;SDS011;4587;51.434;6.788;2024-03-08T06:13:40;34.73;;;25.87;;
9102;SDS011;4587;51.434;6.788;2024-03-08T06:16:05;33.23;;;25.53;;
9102;SDS011;4587;51.434;6.788;2024-03-08T06:18:33;33.27;;;25.47;;
9102;SDS011;4587;51.434;6.788;2024-03-08T06:21:09;31.93;;;25.30;;
9102;SDS011;4587;51.434;6.788;2024-03-08T06:23:36;31.50;;;25.83;;
9102;SDS011;4587;51.434;6.788;2024-03-08T06:26:03;31.77;;;26.00;;
9102;SDS011;4587;51.434;6.788;2024-03-08T06:28:29;31.77;;;25.77;;
9102;SDS011;4587;51.434;6.788;2024-03-08T06:30:54;32.27;;;25.53;;
9102;SDS011;4587;51.434;6.788;2024-03-08T06:33:20;36.27;;;25.13;;
9102;SDS011;4587;51.434;6.788;2024-03-08T06:35:45;32.47;;;24.73;;
9102;SDS011;4587;51.434;6.788;2024-03-08T06:38:11;32.70;;;25.10;;
9102;SDS011;4587;51.434;6.788;2024-03-08T06:40:37;31.27;;;25.07;;
9102;SDS011;4587;51.434;6.788;2024-03-08T06:43:02;31.20;;;25.23;;
9102;SDS011;4587;51.434;6.788;2024-03-08T06:45:33;35.30;;;25.87;;
9102;SDS011;4587;51.434;6.788;2024-03-08T06:48:02;32.30;;;24.97;;
9102;SDS011;4587;51.434;6.788;2024-03-08T06:50:27;31.33;;;25.17;;
9102;SDS011;4587;51.434;6.788;2024-03-08T06:52:53;31.37;;;24.47;;
9102;SDS011;4587;51.434;6.788;2024-03-08T06:55:19;32.63;;;24.50;;
9102;SDS011;4587;51.434;6.788;2024-03-08T06:57:45;32.23;;;25.57;;
9102;SDS011;4587;51.434;6.788;2024-03-08T07:00:10;32.37;;;25.63;;
9102;SDS011;4587;51.434;6.788;2024-03-08T07:02:43;30.73;;;23.40;;
9102;SDS011;4587;51.434;6.788;2024-03-08T07:05:13;30.77;;;24.23;;
9102;SDS011;4587;51.434;6.788;2024-03-08T07:07:39;33.03;;;24.63;;
9102;SDS011;4587;51.434;6.788;2024-03-08T07:10:06;32.07;;;24.37;;
9102;SDS011;4587;51.434;6.788;2024-03-08T07:12:35;32.23;;;24.43;;
9102;SDS011;4587;51.434;6.788;2024-03-08T07:15:02;29.43;;;24.87;;
9102;SDS011;4587;51.434;6.788;2024-03-08T07:17:28;30.20;;;24.20;;
9102;SDS011;4587;51.434;6.788;2024-03-08T07:19:53;28.13;;;24.27;;
9102;SDS011;4587;51.434;6.788;2024-03-08T07:22:19;28.97;;;23.60;;
9102;SDS011;4587;51.434;6.788;2024-03-08T07:24:44;29.53;;;24.67;;
9102;SDS011;4587;51.434;6.788;2024-03-08T07:27:48;29.40;;;23.80;;
9102;SDS011;4587;51.434;6.788;2024-03-08T07:30:18;27.97;;;22.77;;
9102;SDS011;4587;51.434;6.788;2024-03-08T07:33:06;29.17;;;24.10;;
9102;SDS011;4587;51.434;6.788;2024-03-08T07:35:32;27.57;;;23.97;;
9102;SDS011;4587;51.434;6.788;2024-03-08T07:37:58;26.07;;;23.00;;
9102;SDS011;4587;51.434;6.788;2024-03-08T07:40:27;28.73;;;22.83;;
9102;SDS011;4587;51.434;6.788;2024-03-08T07:42:53;25.20;;;22.43;;
9102;SDS011;4587;51.434;6.788;2024-03-08T07:45:18;28.27;;;22.73;;
9102;SDS011;4587;51.434;6.788;2024-03-08T07:47:44;28.03;;;23.33;;
9102;SDS011;4587;51.434;6.788;2024-03-08T07:50:10;25.57;;;22.77;;
9102;SDS011;4587;51.434;6.788;2024-03-08T07:52:36;25.63;;;22.93;;
9102;SDS011;4587;51.434;6.788;2024-03-08T07:55:04;25.57;;;22.80;;
9102;SDS011;4587;51.434;6.788;2024-03-08T07:57:30;26.10;;;22.93;;
9102;SDS011;4587;51.434;6.788;2024-03-08T07:59:56;24.90;;;22.20;;
9102;SDS011;4587;51.434;6.788;2024-03-08T08:02:22;27.50;;;22.57;;
9102;SDS011;4587;51.434;6.788;2024-03-08T08:04:48;25.33;;;22.57;;
9102;SDS011;4587;51.434;6.788;2024-03-08T08:07:13;25.77;;;23.03;;
9102;SDS011;4587;51.434;6.788;2024-03-08T08:09:39;26.00;;;22.27;;
9102;SDS011;4587;51.434;6.788;2024-03-08T08:12:07;24.50;;;21.90;;
9102;SDS011;4587;51.434;6.788;2024-03-08T08:14:36;24.47;;;21.97;;
9102;SDS011;4587;51.434;6.788;2024-03-08T08:17:02;23.70;;;21.17;;
9102;SDS011;4587;51.434;6.788;2024-03-08T08:19:29;26.30;;;22.23;;
9102;SDS011;4587;51.434;6.788;2024-03-08T08:21:55;26.73;;;21.83;;
9102;SDS011;4587;51.434;6.788;2024-03-08T08:24:20;26.90;;;22.83;;
9102;SDS011;4587;51.434;6.788;2024-03-08T08:26:47;26.33;;;23.10;;
9102;SDS011;4587;51.434;6.788;2024-03-08T08:29:12;29.37;;;22.70;;
9102;SDS011;4587;51.434;6.788;2024-03-08T08:31:38;27.13;;;21.33;;
9102;SDS011;4587;51.434;6.788;2024-03-08T08:34:04;26.27;;;21.27;;
9102;SDS011;4587;51.434;6.788;2024-03-08T08:36:29;24.13;;;21.53;;
9102;SDS011;4587;51.434;6.788;2024-03-08T08:38:56;24.20;;;20.83;;
9102;SDS011;4587;51.434;6.788;2024-03-08T08:41:23;23.07;;;20.20;;
9102;SDS011;4587;51.434;6.788;2024-03-08T08:43:49;24.43;;;20.07;;
9102;SDS011;4587;51.434;6.788;2024-03-08T08:46:17;21.37;;;18.33;;
9102;SDS011;4587;51.434;6.788;2024-03-08T08:48:43;24.67;;;20.13;;
9102;SDS011;4587;51.434;6.788;2024-03-08T08:51:10;23.33;;;19.40;;
9102;SDS011;4587;51.434;6.788;2024-03-08T08:53:42;20.90;;;18.67;;
9102;SDS011;4587;51.434;6.788;2024-03-08T08:56:11;25.80;;;18.73;;
9102;SDS011;4587;51.434;6.788;2024-03-08T08:58:38;23.60;;;18.93;;
9102;SDS011;4587;51.434;6.788;2024-03-08T09:01:05;21.37;;;18.10;;
9102;SDS011;4587;51.434;6.788;2024-03-08T09:03:32;21.27;;;18.93;;
9102;SDS011;4587;51.434;6.788;2024-03-08T09:05:59;21.53;;;18.40;;
9102;SDS011;4587;51.434;6.788;2024-03-08T09:08:25;21.93;;;18.93;;
9102;SDS011;4587;51.434;6.788;2024-03-08T09:10:51;23.10;;;19.33;;
9102;SDS011;4587;51.434;6.788;2024-03-08T09:13:16;21.13;;;18.83;;
9102;SDS011;4587;51.434;6.788;2024-03-08T09:15:42;22.40;;;20.00;;
9102;SDS011;4587;51.434;6.788;2024-03-08T09:18:07;26.80;;;19.23;;
9102;SDS011;4587;51.434;6.788;2024-03-08T09:20:34;22.80;;;20.38;;
9102;SDS011;4587;51.434;6.788;2024-03-08T09:22:59;23.10;;;19.80;;
9102;SDS011;4587;51.434;6.788;2024-03-08T09:25:25;24.23;;;20.43;;
9102;SDS011;4587;51.434;6.788;2024-03-08T09:27:51;24.27;;;21.33;;
9102;SDS011;4587;51.434;6.788;2024-03-08T09:30:16;22.60;;;20.20;;
9102;SDS011;4587;51.434;6.788;2024-03-08T09:32:43;28.00;;;21.27;;
9102;SDS011;4587;51.434;6.788;2024-03-08T09:35:08;27.93;;;21.63;;
9102;SDS011;4587;51.434;6.788;2024-03-08T09:37:34;25.87;;;20.97;;
9102;SDS011;4587;51.434;6.788;2024-03-08T09:40:00;26.80;;;20.83;;
9102;SDS011;4587;51.434;6.788;2024-03-08T09:42:29;26.17;;;21.00;;
9102;SDS011;4587;51.434;6.788;2024-03-08T09:44:55;28.37;;;21.30;;
9102;SDS011;4587;51.434;6.788;2024-03-08T09:47:21;23.40;;;20.67;;
9102;SDS011;4587;51.434;6.788;2024-03-08T09:49:49;25.83;;;20.93;;
9102;SDS011;4587;51.434;6.788;2024-03-08T09:52:15;29.50;;;21.17;;
9102;SDS011;4587;51.434;6.788;2024-03-08T09:54:42;25.47;;;20.73;;
9102;SDS011;4587;51.434;6.788;2024-03-08T09:57:09;22.73;;;19.83;;
9102;SDS011;4587;51.434;6.788;2024-03-08T09:59:35;24.57;;;20.43;;
9102;SDS011;4587;51.434;6.788;2024-03-08T10:02:01;26.90;;;20.63;;
9102;SDS011;4587;51.434;6.788;2024-03-08T10:04:28;24.60;;;21.10;;
9102;SDS011;4587;51.434;6.788;2024-03-08T10:06:57;26.00;;;19.77;;
9102;SDS011;4587;51.434;6.788;2024-03-08T10:09:24;26.27;;;20.60;;
9102;SDS011;4587;51.434;6.788;2024-03-08T10:11:53;21.83;;;18.70;;
9102;SDS011;4587;51.434;6.788;2024-03-08T10:14:24;22.77;;;18.53;;
9102;SDS011;4587;51.434;6.788;2024-03-08T10:16:52;21.17;;;18.10;;
9102;SDS011;4587;51.434;6.788;2024-03-08T10:19:19;22.67;;;18.00;;
9102;SDS011;4587;51.434;6.788;2024-03-08T10:21:48;23.67;;;17.17;;
9102;SDS011;4587;51.434;6.788;2024-03-08T10:24:14;23.57;;;17.73;;
9102;SDS011;4587;51.434;6.788;2024-03-08T10:26:40;21.63;;;18.80;;
9102;SDS011;4587;51.434;6.788;2024-03-08T10:29:08;21.63;;;17.97;;
9102;SDS011;4587;51.434;6.788;2024-03-08T10:31:34;21.17;;;17.50;;
9102;SDS011;4587;51.434;6.788;2024-03-08T10:34:00;21.07;;;17.37;;
9102;SDS011;4587;51.434;6.788;2024-03-08T10:36:27;22.23;;;18.23;;
9102;SDS011;4587;51.434;6.788;2024-03-08T10:38:53;22.30;;;17.87;;
9102;SDS011;4587;51.434;6.788;2024-03-08T10:41:21;20.40;;;17.60;;
9102;SDS011;4587;51.434;6.788;2024-03-08T10:46:58;20.07;;;17.73;;
9102;SDS011;4587;51.434;6.788;2024-03-08T10:49:45;20.30;;;16.70;;
9102;SDS011;4587;51.434;6.788;2024-03-08T10:52:18;21.57;;;16.77;;
9102;SDS011;4587;51.434;6.788;2024-03-08T10:54:44;22.17;;;16.47;;
9102;SDS011;4587;51.434;6.788;2024-03-08T10:57:12;20.17;;;16.50;;
9102;SDS011;4587;51.434;6.788;2024-03-08T10:59:40;23.17;;;17.00;;
9102;SDS011;4587;51.434;6.788;2024-03-08T11:02:08;22.43;;;17.90;;
9102;SDS011;4587;51.434;6.788;2024-03-08T11:04:37;20.40;;;17.13;;
9102;SDS011;4587;51.434;6.788;2024-03-08T11:07:03;19.63;;;16.63;;
9102;SDS011;4587;51.434;6.788;2024-03-08T11:09:32;21.50;;;16.90;;
9102;SDS011;4587;51.434;6.788;2024-03-08T11:15:03;21.17;;;16.43;;
9102;SDS011;4587;51.434;6.788;2024-03-08T11:20:04;23.10;;;17.67;;
9102;SDS011;4587;51.434;6.788;2024-03-08T11:22:55;18.67;;;16.37;;
9102;SDS011;4587;51.434;6.788;2024-03-08T11:25:37;21.27;;;16.33;;
9102;SDS011;4587;51.434;6.788;2024-03-08T11:28:07;20.07;;;16.60;;
9102;SDS011;4587;51.434;6.788;2024-03-08T11:30:34;17.50;;;14.67;;
9102;SDS011;4587;51.434;6.788;2024-03-08T11:33:00;18.03;;;15.80;;
9102;SDS011;4587;51.434;6.788;2024-03-08T11:35:28;19.07;;;16.07;;
9102;SDS011;4587;51.434;6.788;2024-03-08T11:37:53;20.20;;;17.67;;
9102;SDS011;4587;51.434;6.788;2024-03-08T11:40:23;24.60;;;19.13;;
9102;SDS011;4587;51.434;6.788;2024-03-08T11:42:49;24.90;;;19.23;;
9102;SDS011;4587;51.434;6.788;2024-03-08T11:45:16;23.83;;;20.47;;
9102;SDS011;4587;51.434;6.788;2024-03-08T11:47:42;24.87;;;19.70;;
9102;SDS011;4587;51.434;6.788;2024-03-08T11:50:11;28.30;;;20.23;;
9102;SDS011;4587;51.434;6.788;2024-03-08T11:52:37;25.17;;;20.53;;
9102;SDS011;4587;51.434;6.788;2024-03-08T11:55:03;24.10;;;20.60;;
9102;SDS011;4587;51.434;6.788;2024-03-08T11:57:30;23.40;;;20.90;;
9102;SDS011;4587;51.434;6.788;2024-03-08T11:59:57;24.03;;;20.47;;
9102;SDS011;4587;51.434;6.788;2024-03-08T12:02:23;28.17;;;21.17;;
9102;SDS011;4587;51.434;6.788;2024-03-08T12:04:56;23.90;;;21.23;;
9102;SDS011;4587;51.434;6.788;2024-03-08T12:07:25;23.43;;;20.67;;
9102;SDS011;4587;51.434;6.788;2024-03-08T12:12:47;25.17;;;20.97;;
9102;SDS011;4587;51.434;6.788;2024-03-08T12:15:15;25.07;;;19.80;;
9102;SDS011;4587;51.434;6.788;2024-03-08T12:17:42;25.23;;;20.93;;
9102;SDS011;4587;51.434;6.788;2024-03-08T12:20:15;22.10;;;19.67;;
9102;SDS011;4587;51.434;6.788;2024-03-08T12:22:48;24.50;;;19.97;;
9102;SDS011;4587;51.434;6.788;2024-03-08T12:25:19;24.33;;;19.07;;
9102;SDS011;4587;51.434;6.788;2024-03-08T12:27:45;25.03;;;20.03;;
9102;SDS011;4587;51.434;6.788;2024-03-08T12:32:55;25.03;;;20.63;;
9102;SDS011;4587;51.434;6.788;2024-03-08T12:35:22;20.70;;;18.50;;
9102;SDS011;4587;51.434;6.788;2024-03-08T12:37:50;21.43;;;19.13;;
9102;SDS011;4587;51.434;6.788;2024-03-08T12:40:29;23.47;;;19.77;;
9102;SDS011;4587;51.434;6.788;2024-03-08T12:43:05;23.23;;;19.53;;
9102;SDS011;4587;51.434;6.788;2024-03-08T12:47:59;25.07;;;20.27;;
9102;SDS011;4587;51.434;6.788;2024-03-08T12:50:25;23.13;;;18.77;;
9102;SDS011;4587;51.434;6.788;2024-03-08T12:52:51;24.40;;;20.43;;
9102;SDS011;4587;51.434;6.788;2024-03-08T12:55:17;22.83;;;17.97;;
9102;SDS011;4587;51.434;6.788;2024-03-08T12:57:43;19.80;;;17.70;;
9102;SDS011;4587;51.434;6.788;2024-03-08T13:00:10;21.83;;;17.57;;
9102;SDS011;4587;51.434;6.788;2024-03-08T13:02:43;20.03;;;17.80;;
9102;SDS011;4587;51.434;6.788;2024-03-08T13:05:12;20.93;;;17.47;;
9102;SDS011;4587;51.434;6.788;2024-03-08T13:07:39;19.50;;;15.27;;
9102;SDS011;4587;51.434;6.788;2024-03-08T13:10:11;17.27;;;15.40;;
9102;SDS011;4587;51.434;6.788;2024-03-08T13:12:39;15.80;;;13.40;;
9102;SDS011;4587;51.434;6.788;2024-03-08T13:15:06;14.63;;;12.97;;
9102;SDS011;4587;51.434;6.788;2024-03-08T13:17:33;11.70;;;9.70;;
9102;SDS011;4587;51.434;6.788;2024-03-08T13:19:59;10.50;;;9.40;;
9102;SDS011;4587;51.434;6.788;2024-03-08T13:22:24;10.43;;;8.97;;
9102;SDS011;4587;51.434;6.788;2024-03-08T13:24:50;11.50;;;8.73;;
9102;SDS011;4587;51.434;6.788;2024-03-08T13:27:17;9.80;;;8.70;;
9102;SDS011;4587;51.434;6.788;2024-03-08T13:29:47;11.30;;;9.10;;
9102;SDS011;4587;51.434;6.788;2024-03-08T13:32:14;9.80;;;8.80;;
9102;SDS011;4587;51.434;6.788;2024-03-08T13:34:40;11.17;;;8.77;;
9102;SDS011;4587;51.434;6.788;2024-03-08T13:37:12;9.70;;;8.70;;
9102;SDS011;4587;51.434;6.788;2024-03-08T13:39:40;9.30;;;8.30;;
9102;SDS011;4587;51.434;6.788;2024-03-08T13:42:09;9.20;;;8.30;;
9102;SDS011;4587;51.434;6.788;2024-03-08T13:44:37;8.90;;;8.00;;
9102;SDS011;4587;51.434;6.788;2024-03-08T13:47:21;9.23;;;7.47;;
9102;SDS011;4587;51.434;6.788;2024-03-08T13:49:46;11.13;;;7.80;;
9102;SDS011;4587;51.434;6.788;2024-03-08T13:52:15;8.90;;;7.87;;
9102;SDS011;4587;51.434;6.788;2024-03-08T13:54:42;8.67;;;7.30;;
9102;SDS011;4587;51.434;6.788;2024-03-08T13:57:07;10.13;;;7.87;;
9102;SDS011;4587;51.434;6.788;2024-03-08T13:59:33;8.87;;;7.93;;
9102;SDS011;4587;51.434;6.788;2024-03-08T14:02:00;10.33;;;7.83;;
9102;SDS011;4587;51.434;6.788;2024-03-08T14:04:27;8.83;;;7.40;;
9102;SDS011;4587;51.434;6.788;2024-03-08T14:06:53;8.27;;;7.47;;
9102;SDS011;4587;51.434;6.788;2024-03-08T14:09:22;8.80;;;7.63;;
9102;SDS011;4587;51.434;6.788;2024-03-08T14:11:49;9.33;;;8.03;;
9102;SDS011;4587;51.434;6.788;2024-03-08T14:14:18;9.80;;;7.53;;
9102;SDS011;4587;51.434;6.788;2024-03-08T14:16:46;8.63;;;7.73;;
9102;SDS011;4587;51.434;6.788;2024-03-08T14:19:12;9.10;;;8.13;;
9102;SDS011;4587;51.434;6.788;2024-03-08T14:21:40;8.70;;;7.77;;
9102;SDS011;4587;51.434;6.788;2024-03-08T14:24:07;8.63;;;7.73;;
9102;SDS011;4587;51.434;6.788;2024-03-08T14:26:32;8.53;;;7.73;;
9102;SDS011;4587;51.434;6.788;2024-03-08T14:28:59;8.97;;;7.77;;
9102;SDS011;4587;51.434;6.788;2024-03-08T14:31:24;8.63;;;7.73;;
9102;SDS011;4587;51.434;6.788;2024-03-08T14:33:50;9.47;;;8.43;;
9102;SDS011;4587;51.434;6.788;2024-03-08T14:36:19;9.67;;;7.97;;
9102;SDS011;4587;51.434;6.788;2024-03-08T14:38:48;11.80;;;8.00;;
9102;SDS011;4587;51.434;6.788;2024-03-08T14:41:13;10.37;;;8.83;;
9102;SDS011;4587;51.434;6.788;2024-03-08T14:43:42;13.30;;;8.53;;
9102;SDS011;4587;51.434;6.788;2024-03-08T14:46:10;11.70;;;8.90;;
9102;SDS011;4587;51.434;6.788;2024-03-08T14:48:48;10.50;;;8.47;;
9102;SDS011;4587;51.434;6.788;2024-03-08T14:51:16;9.17;;;8.23;;
9102;SDS011;4587;51.434;6.788;2024-03-08T14:53:44;9.53;;;8.53;;
9102;SDS011;4587;51.434;6.788;2024-03-08T14:56:11;9.43;;;8.50;;
9102;SDS011;4587;51.434;6.788;2024-03-08T14:58:41;9.97;;;8.63;;
9102;SDS011;4587;51.434;6.788;2024-03-08T15:01:09;9.30;;;8.40;;
9102;SDS011;4587;51.434;6.788;2024-03-08T15:03:43;9.67;;;8.67;;
9102;SDS011;4587;51.434;6.788;2024-03-08T15:06:09;9.83;;;8.47;;
9102;SDS011;4587;51.434;6.788;2024-03-08T15:08:35;11.57;;;9.47;;